Time;durP1;ratioP1;P1;durP2;ratioP2;P2;SDS_P1;SDS_P2;PMS_P1;PMS_P2;Temp;Humidity;BMP_temperature;BMP_pressure;BME280_temperature;BME280_humidity;BME280_pressure;Samples;Min_cycle;Max_cycle;Signal;HPM_P1;HPM_P2
2021/04/28 00:01:10;;;;;;;14.98;9.20;;;;;;;18.05;64.35;100824.97;144992;577;6006;-90
2021/04/28 00:03:36;;;;;;;10.27;7.60;;;;;;;18.05;63.20;100836.34;144992;605;6006;-92
2021/04/28 00:06:03;;;;;;;13.05;8.25;;;;;;;17.99;63.48;100841.63;144992;562;6007;-90
2021/04/28 00:08:53;;;;;;;12.50;7.82;;;;;;;17.86;65.16;100839.78;144992;560;6006;-91
2021/04/28 00:11:35;;;;;;;12.20;8.52;;;;;;;17.80;64.99;100831.91;144991;664;6006;-83
2021/04/28 00:14:24;;;;;;;12.88;8.93;;;;;;;17.87;64.02;100812.69;144992;687;6004;-82
2021/04/28 00:16:54;;;;;;;15.18;9.38;;;;;;;17.95;64.29;100818.84;144992;650;6004;-89
2021/04/28 00:19:21;;;;;;;12.63;8.50;;;;;;;17.98;64.20;100816.22;144992;573;6004;-91
2021/04/28 00:21:47;;;;;;;16.12;9.85;;;;;;;17.98;64.13;100807.47;144992;564;6004;-91
2021/04/28 00:24:14;;;;;;;16.02;9.57;;;;;;;18.06;63.56;100824.09;144992;575;6004;-90
2021/04/28 00:26:41;;;;;;;15.52;9.13;;;;;;;18.07;63.87;100855.62;144992;605;6004;-90
2021/04/28 00:29:08;;;;;;;14.32;9.52;;;;;;;18.11;63.43;100882.78;144992;573;6004;-91
2021/04/28 00:31:35;;;;;;;14.90;9.60;;;;;;;17.99;64.06;100894.16;144991;571;6004;-90
2021/04/28 00:34:04;;;;;;;14.13;9.15;;;;;;;18.02;63.57;100888.88;144992;569;6004;-90
2021/04/28 00:36:30;;;;;;;13.82;9.57;;;;;;;17.89;64.03;100887.97;144992;713;6004;-91
2021/04/28 00:38:57;;;;;;;16.27;9.63;;;;;;;17.92;63.30;100887.13;144992;678;6004;-90
2021/04/28 00:41:25;;;;;;;12.18;8.80;;;;;;;17.96;63.80;100907.28;144992;648;6004;-91
2021/04/28 00:43:53;;;;;;;12.82;9.13;;;;;;;17.96;63.02;100909.91;144992;603;6004;-91
2021/04/28 00:46:20;;;;;;;10.82;8.73;;;;;;;17.90;63.68;100884.47;144992;611;6004;-90
2021/04/28 00:48:47;;;;;;;12.82;9.82;;;;;;;17.94;62.92;100859.09;144992;571;6004;-90
2021/04/28 00:51:15;;;;;;;17.35;11.65;;;;;;;17.92;63.57;100852.97;144992;566;6004;-91
2021/04/28 00:53:44;;;;;;;18.25;11.27;;;;;;;17.94;63.56;100862.62;144992;569;6004;-92
2021/04/28 00:56:37;;;;;;;20.02;11.82;;;;;;;17.92;63.72;100863.47;144992;591;6004;-79
2021/04/28 00:59:45;;;;;;;;;;;;;;;;;;;;;
2021/04/28 01:03:02;;;;;;;17.70;9.98;;;;;;;17.91;63.64;100844.22;144992;580;6006;-81
2021/04/28 01:05:44;;;;;;;15.93;10.18;;;;;;;17.87;64.10;100841.56;144992;646;6007;-92
2021/04/28 01:08:15;;;;;;;15.88;10.18;;;;;;;17.82;64.62;100827.56;144992;576;6006;-90
2021/04/28 01:10:42;;;;;;;15.68;10.45;;;;;;;17.71;65.24;100831.03;144992;562;6006;-89
2021/04/28 01:13:09;;;;;;;16.27;10.82;;;;;;;17.70;64.52;100831.88;144992;558;6007;-90
2021/04/28 01:15:35;;;;;;;18.08;10.38;;;;;;;17.58;64.54;100824.88;144992;560;6002;-88
2021/04/28 01:18:03;;;;;;;14.60;9.20;;;;;;;17.26;66.71;100858.88;144992;571;6006;-89
2021/04/28 01:20:36;;;;;;;17.90;10.35;;;;;;;17.34;65.00;100879.88;144992;590;6007;-88
2021/04/28 01:23:27;;;;;;;16.90;10.35;;;;;;;17.33;64.72;100886.00;144991;592;6002;-88
2021/04/28 01:25:59;;;;;;;16.33;10.90;;;;;;;17.21;64.87;100913.03;144992;562;6004;-88
2021/04/28 01:28:26;;;;;;;14.57;10.65;;;;;;;17.27;64.58;100918.31;144992;560;6004;-89
2021/04/28 01:31:10;;;;;;;19.58;11.63;;;;;;;17.16;65.30;100926.13;144992;589;6004;-89
2021/04/28 01:33:42;;;;;;;17.58;11.57;;;;;;;17.14;64.95;100938.37;144992;563;6004;-90
2021/04/28 01:36:16;;;;;;;15.52;10.93;;;;;;;17.21;64.59;100934.03;144992;589;6004;-88
2021/04/28 01:38:56;;;;;;;14.68;11.12;;;;;;;17.27;64.37;100923.56;144992;619;6013;-82
2021/04/28 01:41:27;;;;;;;17.48;10.07;;;;;;;17.29;64.55;100900.88;144992;563;6004;-87
2021/04/28 01:43:56;;;;;;;15.55;10.02;;;;;;;17.29;64.31;100894.72;144991;570;6004;-89
2021/04/28 01:46:27;;;;;;;19.02;11.52;;;;;;;17.30;64.26;100884.25;144992;564;6004;-89
2021/04/28 01:48:57;;;;;;;19.40;11.18;;;;;;;17.30;63.93;100859.75;144992;579;6004;-89
2021/04/28 01:51:23;;;;;;;18.75;10.77;;;;;;;17.26;64.11;100865.84;144992;578;6004;-88
2021/04/28 01:53:50;;;;;;;18.80;11.75;;;;;;;17.28;64.63;100844.00;144992;575;6004;-88
2021/04/28 01:56:17;;;;;;;20.08;11.30;;;;;;;17.23;64.93;100832.63;144992;594;6004;-88
2021/04/28 01:58:44;;;;;;;20.55;10.75;;;;;;;17.22;64.62;100816.00;144992;564;6004;-89
2021/04/28 02:01:12;;;;;;;16.50;10.45;;;;;;;17.24;65.04;100818.62;144992;574;6004;-88
2021/04/28 02:03:39;;;;;;;17.70;10.80;;;;;;;17.21;65.35;100814.25;144992;590;6004;-90
2021/04/28 02:06:07;;;;;;;19.65;11.23;;;;;;;17.23;65.27;100806.41;144992;631;6004;-88
2021/04/28 02:08:34;;;;;;;22.65;11.02;;;;;;;17.25;64.84;100803.78;144992;599;6004;-91
2021/04/28 02:11:04;;;;;;;15.75;10.27;;;;;;;17.26;65.41;100792.38;144992;585;6004;-89
2021/04/28 02:13:35;;;;;;;16.92;10.30;;;;;;;17.29;66.55;100808.16;144992;596;6004;-88
2021/04/28 02:16:03;;;;;;;17.33;11.48;;;;;;;17.14;66.70;100808.97;144992;590;6004;-89
2021/04/28 02:18:35;;;;;;;16.25;9.95;;;;;;;16.97;66.85;100801.91;144992;572;6004;-90
2021/04/28 02:21:04;;;;;;;14.45;9.50;;;;;;;17.01;66.07;100808.03;144992;588;6004;-89
2021/04/28 02:23:41;;;;;;;12.07;9.75;;;;;;;17.11;65.93;100814.22;144992;601;6004;-80
2021/04/28 02:26:38;;;;;;;;;;;;;;;;;;;;;
2021/04/28 02:29:06;;;;;;;15.70;9.68;;;;;;;17.33;65.23;100807.31;144992;564;6002;-91
2021/04/28 02:31:34;;;;;;;13.95;8.55;;;;;;;17.39;64.68;100805.56;144993;597;6006;-91
2021/04/28 02:34:05;;;;;;;12.88;9.38;;;;;;;17.46;64.70;100802.97;144993;592;6004;-91
2021/04/28 02:36:36;;;;;;;15.63;9.98;;;;;;;17.53;64.55;100802.09;144993;574;6004;-93
2021/04/28 02:39:44;;;;;;;13.93;9.50;;;;;;;17.58;64.34;100800.38;144993;582;6004;-92
2021/04/28 02:42:43;;;;;;;12.52;8.75;;;;;;;17.64;64.26;100797.78;144994;561;6002;-85
2021/04/28 02:45:53;;;;;;;12.93;8.95;;;;;;;17.70;64.05;100797.75;144993;564;6004;-82
2021/04/28 02:48:31;;;;;;;12.68;9.00;;;;;;;17.75;64.01;100797.75;144993;654;6002;-89
2021/04/28 02:51:07;;;;;;;15.27;9.80;;;;;;;17.77;63.88;100796.91;144993;564;6004;-88
2021/04/28 02:53:36;;;;;;;12.85;8.68;;;;;;;17.80;64.06;100790.78;144993;561;6004;-86
2021/04/28 02:56:24;;;;;;;14.55;8.88;;;;;;;17.82;64.51;100786.41;144993;563;6002;-90
2021/04/28 02:58:52;;;;;;;15.60;9.52;;;;;;;17.85;64.29;100775.91;144992;562;6004;-90
2021/04/28 03:01:20;;;;;;;16.58;11.68;;;;;;;17.83;64.32;100779.41;144992;564;6004;-91
2021/04/28 03:03:47;;;;;;;16.33;10.93;;;;;;;17.73;64.19;100781.12;144992;612;6004;-91
2021/04/28 03:06:16;;;;;;;14.50;9.95;;;;;;;17.70;63.91;100783.75;144992;567;6004;-90
2021/04/28 03:08:53;;;;;;;13.62;9.77;;;;;;;17.68;63.85;100780.25;144992;643;6004;-89
2021/04/28 03:11:39;;;;;;;13.45;9.48;;;;;;;17.70;64.27;100786.37;144992;589;6004;-81
2021/04/28 03:14:44;;;;;;;15.60;10.27;;;;;;;17.61;64.30;100796.87;144993;555;6004;-83
2021/04/28 03:17:21;;;;;;;16.75;9.98;;;;;;;17.54;64.45;100801.22;144993;561;6002;-90
2021/04/28 03:19:51;;;;;;;16.70;10.57;;;;;;;17.54;64.50;100803.84;144993;576;6005;-91
2021/04/28 03:22:19;;;;;;;18.25;10.38;;;;;;;17.56;64.20;100805.63;144993;565;6004;-90
2021/04/28 03:24:50;;;;;;;19.83;10.93;;;;;;;17.59;64.12;100817.84;144993;592;6004;-89
2021/04/28 03:27:35;;;;;;;15.52;10.70;;;;;;;17.54;63.87;100816.97;144993;575;6005;-81
2021/04/28 03:30:14;;;;;;;19.30;11.65;;;;;;;17.56;64.22;100817.84;144993;563;6004;-91
2021/04/28 03:32:41;;;;;;;17.17;12.30;;;;;;;17.58;64.12;100817.00;144993;563;6004;-90
2021/04/28 03:35:09;;;;;;;20.85;13.40;;;;;;;17.54;64.37;100827.47;144993;581;6004;-91
2021/04/28 03:37:37;;;;;;;21.73;12.43;;;;;;;17.47;64.58;100830.97;144993;581;6004;-89
2021/04/28 03:40:08;;;;;;;18.23;11.23;;;;;;;17.43;65.03;100844.94;144993;620;6004;-89
2021/04/28 03:42:36;;;;;;;26.87;12.13;;;;;;;17.43;64.80;100847.56;144993;608;6002;-91
2021/04/28 03:45:05;;;;;;;18.80;11.35;;;;;;;17.35;65.14;100855.41;144993;603;6002;-91
2021/04/28 03:47:31;;;;;;;18.62;11.18;;;;;;;17.38;65.03;100858.91;144993;591;6002;-90
2021/04/28 03:49:59;;;;;;;18.75;10.63;;;;;;;17.39;64.62;100873.78;144993;639;6002;-91
2021/04/28 03:52:26;;;;;;;24.48;11.00;;;;;;;17.41;64.86;100868.56;144993;606;6002;-89
2021/04/28 03:54:53;;;;;;;15.73;10.05;;;;;;;17.45;64.32;100859.84;144993;602;6002;-89
2021/04/28 03:57:19;;;;;;;16.55;9.75;;;;;;;17.51;64.16;100866.84;144993;568;6002;-90
2021/04/28 03:59:46;;;;;;;15.88;10.20;;;;;;;17.55;63.94;100865.97;144993;549;6002;-90
2021/04/28 04:02:13;;;;;;;17.08;9.95;;;;;;;17.54;64.14;100867.72;144993;531;6002;-91
2021/04/28 04:04:39;;;;;;;17.15;9.13;;;;;;;17.58;64.22;100879.12;144994;566;5002;-92
2021/04/28 04:07:06;;;;;;;18.10;9.25;;;;;;;17.60;63.84;100895.75;144994;564;5002;-90
2021/04/28 04:09:33;;;;;;;19.37;10.27;;;;;;;17.63;63.62;100898.37;144994;563;5002;-90
2021/04/28 04:11:59;;;;;;;17.62;10.38;;;;;;;17.64;64.01;100900.16;144994;563;5003;-92
2021/04/28 04:14:26;;;;;;;15.73;10.50;;;;;;;17.58;64.16;100900.12;144994;570;5002;-88
2021/04/28 04:16:52;;;;;;;16.10;10.50;;;;;;;17.46;64.93;100902.69;144994;570;5002;-91
2021/04/28 04:19:19;;;;;;;17.12;10.23;;;;;;;17.48;64.45;100908.81;144994;575;5003;-93
2021/04/28 04:22:13;;;;;;;;;;;;;;;;;;;;;
2021/04/28 04:25:18;;;;;;;;;;;;;;;;;;;;;
2021/04/28 04:28:23;;;;;;;15.55;9.75;;;;;;;17.59;64.29;100920.22;144994;570;5002;-82
2021/04/28 04:30:52;;;;;;;14.65;9.30;;;;;;;17.66;63.98;100919.41;144994;576;5002;-92
2021/04/28 04:33:20;;;;;;;14.98;9.52;;;;;;;17.73;63.95;100928.16;144994;575;5002;-94
2021/04/28 04:35:47;;;;;;;19.02;10.02;;;;;;;17.82;63.82;100916.84;144994;569;5002;-90
2021/04/28 04:38:16;;;;;;;14.63;9.43;;;;;;;17.86;64.39;100929.06;144994;579;5002;-85
2021/04/28 04:40:44;;;;;;;14.65;9.98;;;;;;;17.91;64.21;100932.63;144994;555;5002;-90
2021/04/28 04:43:11;;;;;;;20.20;9.52;;;;;;;17.89;63.89;100934.38;144994;569;5002;-92
2021/04/28 04:45:38;;;;;;;16.05;9.98;;;;;;;17.90;63.97;100934.38;144994;625;5002;-92
2021/04/28 04:48:07;;;;;;;13.57;9.40;;;;;;;17.82;64.57;100943.09;144993;586;5002;-92
2021/04/28 04:50:35;;;;;;;21.40;10.07;;;;;;;17.82;64.25;100941.34;144994;616;5002;-93
2021/04/28 04:53:03;;;;;;;16.95;9.30;;;;;;;17.78;64.33;100942.19;144994;581;5002;-91
2021/04/28 04:55:30;;;;;;;21.15;11.07;;;;;;;17.69;64.59;100940.41;144994;629;5002;-92
2021/04/28 04:58:05;;;;;;;22.67;11.65;;;;;;;17.71;64.47;100938.66;144994;621;5002;-82
2021/04/28 05:00:57;;;;;;;;;;;;;;;;;;;;;
2021/04/28 05:03:33;;;;;;;23.10;12.68;;;;;;;18.01;63.82;100950.19;144994;673;5005;-80
2021/04/28 05:06:01;;;;;;;24.52;12.37;;;;;;;18.12;63.43;100948.44;144994;654;5004;-83
2021/04/28 05:08:28;;;;;;;19.20;12.15;;;;;;;18.24;63.17;100937.06;144994;566;5004;-91
2021/04/28 05:10:56;;;;;;;22.90;12.37;;;;;;;18.33;63.28;100933.59;144994;584;5005;-81
2021/04/28 05:14:05;;;;;;;;;;;;;;;;;;;;;
2021/04/28 05:17:02;;;;;;;22.30;11.20;;;;;;;18.40;63.29;100924.84;144994;583;5002;-82
2021/04/28 05:19:46;;;;;;;21.60;13.05;;;;;;;18.49;63.29;100927.47;144994;728;5004;-80
2021/04/28 05:22:40;;;;;;;25.85;14.40;;;;;;;18.55;63.32;100929.25;144994;584;5004;-80
2021/04/28 05:25:16;;;;;;;20.65;12.70;;;;;;;18.68;63.30;100924.84;144994;573;5004;-81
2021/04/28 05:28:26;;;;;;;24.25;13.15;;;;;;;18.75;62.90;100925.72;144994;620;5004;-79
2021/04/28 05:31:55;;;;;;;;;;;;;;;;;;;;;
2021/04/28 05:34:53;;;;;;;22.23;12.20;;;;;;;18.85;62.86;100928.37;144994;612;5004;-79
2021/04/28 05:38:04;;;;;;;18.10;12.68;;;;;;;18.93;62.64;100938.91;144994;602;5002;-81
2021/04/28 05:40:39;;;;;;;17.15;11.48;;;;;;;19.04;62.82;100936.22;144994;587;5004;-78
2021/04/28 05:43:20;;;;;;;19.08;10.57;;;;;;;19.13;62.82;100937.97;144993;627;5004;-81
2021/04/28 05:45:49;;;;;;;14.48;9.73;;;;;;;19.15;62.49;100937.09;144994;591;5002;-93
2021/04/28 05:48:19;;;;;;;14.35;9.20;;;;;;;19.06;62.96;100944.12;144994;658;5002;-79
2021/04/28 05:50:51;;;;;;;15.73;9.45;;;;;;;19.14;62.79;100945.87;144994;576;5002;-92
2021/04/28 05:53:26;;;;;;;13.55;8.60;;;;;;;19.19;62.85;100941.47;144994;616;5002;-79
2021/04/28 05:55:58;;;;;;;15.75;10.13;;;;;;;19.30;62.46;100951.97;144994;581;5002;-80
2021/04/28 05:58:26;;;;;;;12.32;7.72;;;;;;;19.44;62.21;100951.03;144994;698;5002;-81
2021/04/28 06:01:54;;;;;;;15.02;8.27;;;;;;;19.42;61.97;100958.94;144994;567;5004;-81
2021/04/28 06:05:12;;;;;;;;;;;;;;;;;;;;;
2021/04/28 06:08:44;;;;;;;;;;;;;;;;;;;;;
2021/04/28 06:12:08;;;;;;;;;;;;;;;;;;;;;
2021/04/28 06:14:36;;;;;;;9.70;7.25;;;;;;;19.00;63.28;100966.06;144994;569;5002;-81
2021/04/28 06:17:06;;;;;;;10.77;8.38;;;;;;;18.79;63.21;100973.06;144994;591;5002;-83
2021/04/28 06:19:34;;;;;;;12.37;8.35;;;;;;;18.77;63.68;100971.28;144994;575;5002;-82
2021/04/28 06:22:01;;;;;;;9.38;6.65;;;;;;;18.88;63.15;100953.78;144994;585;5002;-93
2021/04/28 06:24:28;;;;;;;12.35;7.53;;;;;;;19.00;63.44;100952.91;144994;582;5002;-92
2021/04/28 06:26:57;;;;;;;13.82;6.95;;;;;;;19.05;62.99;100951.16;144994;648;5002;-80
2021/04/28 06:29:25;;;;;;;12.27;7.57;;;;;;;19.11;63.10;100939.75;144994;696;5002;-93
2021/04/28 06:31:52;;;;;;;10.23;7.37;;;;;;;18.97;62.97;100935.37;144994;580;5002;-91
2021/04/28 06:34:21;;;;;;;12.75;8.10;;;;;;;19.01;63.16;100923.09;144994;578;5002;-84
2021/04/28 06:36:48;;;;;;;14.48;8.35;;;;;;;18.74;64.36;100921.31;144994;586;5002;-89
2021/04/28 06:39:15;;;;;;;10.60;7.80;;;;;;;18.64;64.68;100921.34;144994;580;5002;-89
2021/04/28 06:41:42;;;;;;;10.60;7.75;;;;;;;18.55;65.13;100926.62;144994;585;5002;-90
2021/04/28 06:44:28;;;;;;;15.93;7.93;;;;;;;18.09;66.99;100923.94;144993;592;5002;-88
2021/04/28 06:47:40;;;;;;;17.62;8.98;;;;;;;18.55;65.38;100936.22;144994;628;5002;-79
2021/04/28 06:50:25;;;;;;;11.15;7.60;;;;;;;18.64;64.46;100944.12;144994;589;5004;-87
2021/04/28 06:52:53;;;;;;;15.82;8.73;;;;;;;18.87;64.53;100944.16;144994;609;5004;-88
2021/04/28 06:55:20;;;;;;;12.95;7.80;;;;;;;18.81;64.84;100955.50;144994;561;5005;-87
2021/04/28 06:57:52;;;;;;;11.77;8.73;;;;;;;18.84;64.55;100952.91;144994;562;5004;-86
2021/04/28 07:00:20;;;;;;;15.13;9.05;;;;;;;18.71;65.11;100947.62;144994;573;5004;-85
2021/04/28 07:02:53;;;;;;;12.13;7.57;;;;;;;18.31;65.92;100949.37;144994;584;5005;-87
2021/04/28 07:05:21;;;;;;;16.60;7.57;;;;;;;18.43;65.57;100958.13;144994;570;5004;-86
2021/04/28 07:07:48;;;;;;;10.10;7.47;;;;;;;18.47;65.58;100945.00;144994;577;5004;-86
2021/04/28 07:10:16;;;;;;;12.40;7.60;;;;;;;18.63;65.44;100952.91;144994;682;5005;-81
2021/04/28 07:12:47;;;;;;;12.20;6.70;;;;;;;18.46;65.46;100950.25;144994;587;5004;-83
2021/04/28 07:15:14;;;;;;;15.52;7.70;;;;;;;18.49;65.80;100956.38;144994;694;5004;-84
2021/04/28 07:17:45;;;;;;;13.68;7.50;;;;;;;18.56;64.90;100959.88;144994;592;5005;-86
2021/04/28 07:20:13;;;;;;;12.43;7.32;;;;;;;18.55;64.90;100952.00;144994;593;5004;-84
2021/04/28 07:22:40;;;;;;;13.18;7.85;;;;;;;18.44;65.71;100955.50;144994;628;5004;-85
2021/04/28 07:25:08;;;;;;;13.93;6.80;;;;;;;18.30;66.36;100941.47;144994;563;5004;-87
2021/04/28 07:27:35;;;;;;;12.15;7.37;;;;;;;18.46;65.30;100943.25;144994;648;5004;-86
2021/04/28 07:30:03;;;;;;;14.27;6.55;;;;;;;18.37;65.61;100939.72;144994;603;5004;-88
2021/04/28 07:32:29;;;;;;;12.20;7.30;;;;;;;18.42;65.34;100949.37;144994;598;5004;-86
2021/04/28 07:35:21;;;;;;;10.63;7.12;;;;;;;18.39;65.49;100944.12;144994;582;5004;-84
2021/04/28 07:37:53;;;;;;;9.77;6.53;;;;;;;18.51;65.31;100947.62;144994;573;5004;-79
2021/04/28 07:40:23;;;;;;;13.77;7.32;;;;;;;18.70;65.37;100954.66;144993;625;5004;-86
2021/04/28 07:42:51;;;;;;;10.45;7.05;;;;;;;18.65;64.73;100951.16;144994;724;5002;-84
2021/04/28 07:45:19;;;;;;;10.35;6.82;;;;;;;18.79;64.86;100957.28;144994;641;5002;-84
2021/04/28 07:47:46;;;;;;;16.90;7.70;;;;;;;18.67;65.04;100946.75;144994;643;5002;-85
2021/04/28 07:50:15;;;;;;;9.82;5.78;;;;;;;18.98;63.97;100952.06;144994;587;5002;-92
2021/04/28 07:52:49;;;;;;;13.27;6.05;;;;;;;19.19;63.83;100946.72;144994;634;5002;-83
2021/04/28 07:55:17;;;;;;;11.80;6.32;;;;;;;19.33;63.60;100938.81;144994;564;5002;-88
2021/04/28 07:57:45;;;;;;;11.55;6.90;;;;;;;19.54;63.22;100931.72;144994;581;5002;-85
2021/04/28 08:00:14;;;;;;;12.52;6.97;;;;;;;19.62;62.26;100932.56;144994;738;5002;-81
2021/04/28 08:02:42;;;;;;;10.80;6.68;;;;;;;19.63;61.19;100922.91;144994;584;5003;-85
2021/04/28 08:05:11;;;;;;;12.68;7.05;;;;;;;19.64;62.49;100937.81;144994;579;5002;-86
2021/04/28 08:07:37;;;;;;;11.40;6.70;;;;;;;19.68;61.33;100944.84;144994;586;5002;-86
2021/04/28 08:10:10;;;;;;;9.02;6.20;;;;;;;19.09;63.71;100959.91;144994;585;5003;-87
2021/04/28 08:12:40;;;;;;;10.77;7.25;;;;;;;19.43;63.04;100973.00;144994;559;5002;-86
2021/04/28 08:15:10;;;;;;;12.80;6.78;;;;;;;19.50;62.21;100965.09;144994;564;5002;-85
2021/04/28 08:17:43;;;;;;;12.20;6.60;;;;;;;19.52;63.10;100979.13;144994;579;5002;-86
2021/04/28 08:20:20;;;;;;;9.18;6.47;;;;;;;19.81;62.39;100966.75;144993;660;5002;-88
2021/04/28 08:22:59;;;;;;;11.10;5.90;;;;;;;19.98;59.88;100971.94;144994;596;5002;-84
2021/04/28 08:25:31;;;;;;;9.20;5.50;;;;;;;20.02;60.49;100966.66;144994;633;5002;-87
2021/04/28 08:28:12;;;;;;;9.80;5.60;;;;;;;20.08;60.39;100966.63;144994;614;5002;-87
2021/04/28 08:30:41;;;;;;;15.18;5.93;;;;;;;20.10;59.56;100966.59;144994;596;5002;-85
2021/04/28 08:33:15;;;;;;;9.15;6.28;;;;;;;20.04;59.50;100953.47;144994;616;5002;-86
2021/04/28 08:36:00;;;;;;;10.43;6.00;;;;;;;19.90;60.17;100956.16;144994;586;5002;-87
2021/04/28 08:38:31;;;;;;;8.85;5.22;;;;;;;19.46;59.93;100960.72;144994;608;5002;-85
2021/04/28 08:41:02;;;;;;;9.63;6.07;;;;;;;19.79;59.83;100961.50;144994;615;4567;-85
2021/04/28 08:43:37;;;;;;;10.88;5.40;;;;;;;19.64;60.35;100957.12;144994;654;4572;-89
2021/04/28 08:46:11;;;;;;;9.30;5.95;;;;;;;19.58;59.90;100954.50;144993;595;6002;-88
2021/04/28 08:48:37;;;;;;;10.57;5.93;;;;;;;19.62;59.97;100953.62;144992;610;6002;-87
2021/04/28 08:51:14;;;;;;;13.05;6.30;;;;;;;19.31;60.23;100960.75;144992;608;6002;-86
2021/04/28 08:53:54;;;;;;;10.30;6.50;;;;;;;19.23;61.00;100980.94;144992;564;6002;-89
2021/04/28 08:56:21;;;;;;;10.88;6.72;;;;;;;19.27;60.94;100980.94;144992;564;6002;-86
2021/04/28 08:58:50;;;;;;;12.68;6.53;;;;;;;19.21;61.07;100979.19;144992;575;6002;-88
2021/04/28 09:01:34;;;;;;;10.50;6.78;;;;;;;19.36;60.55;100975.66;144992;623;6002;-88
2021/04/28 09:04:10;;;;;;;14.43;7.80;;;;;;;19.67;59.78;100980.81;144992;594;6002;-87
2021/04/28 09:06:37;;;;;;;12.75;7.70;;;;;;;19.48;60.28;100976.50;144992;577;6002;-89
2021/04/28 09:09:13;;;;;;;12.82;7.07;;;;;;;19.42;59.54;100985.28;144992;581;6003;-90
2021/04/28 09:11:42;;;;;;;12.73;6.68;;;;;;;19.55;59.79;100981.75;144992;613;6002;-91
2021/04/28 09:14:16;;;;;;;10.18;7.22;;;;;;;19.57;60.02;100953.66;144992;580;6002;-89
2021/04/28 09:16:46;;;;;;;8.90;6.62;;;;;;;19.86;59.08;100950.03;144992;597;6003;-90
2021/04/28 09:22:15;;;;;;;10.52;7.75;;;;;;;19.57;59.27;100965.94;144992;602;6004;-90
2021/04/28 09:24:54;;;;;;;12.15;8.18;;;;;;;19.35;61.18;100967.75;144992;630;6004;-90
2021/04/28 09:27:40;;;;;;;11.68;8.32;;;;;;;19.45;61.12;100940.50;144992;595;6004;-88
2021/04/28 09:30:22;;;;;;;9.77;6.30;;;;;;;19.58;60.17;100950.13;144992;565;6004;-89
2021/04/28 09:33:11;;;;;;;9.93;6.40;;;;;;;19.43;61.16;100968.63;144992;626;6004;-86
2021/04/28 09:36:15;;;;;;;;;;;;;;;;;;;;;
2021/04/28 09:43:52;;;;;;;10.30;6.97;;;;;;;19.48;62.16;100956.31;144992;582;6002;-89
2021/04/28 09:51:50;;;;;;;14.07;6.80;;;;;;;19.55;61.76;100959.78;144992;573;6002;-87
2021/04/28 09:54:52;;;;;;;12.95;7.10;;;;;;;19.13;63.23;100924.81;144992;617;6004;-87
2021/04/28 09:57:45;;;;;;;11.70;7.40;;;;;;;19.20;63.71;100916.91;144992;571;6004;-86
2021/04/28 10:00:27;;;;;;;15.43;8.25;;;;;;;19.08;63.61;100905.56;144992;571;6004;-87
2021/04/28 10:03:07;;;;;;;12.50;7.57;;;;;;;19.32;63.31;100891.44;144992;593;6004;-89
2021/04/28 10:05:40;;;;;;;14.13;8.43;;;;;;;19.82;61.39;100882.47;144992;576;6004;-90
2021/04/28 10:08:26;;;;;;;16.10;8.60;;;;;;;19.74;62.10;100871.94;144992;617;6004;-87
2021/04/28 10:11:23;;;;;;;12.48;7.75;;;;;;;20.20;60.85;100862.00;144992;607;6004;-89
2021/04/28 10:13:55;;;;;;;14.05;8.07;;;;;;;20.32;60.86;100854.00;144992;683;6002;-91
2021/04/28 10:16:22;;;;;;;9.50;6.70;;;;;;;20.43;60.12;100857.41;144992;596;6003;-85
2021/04/28 10:18:50;;;;;;;12.05;6.40;;;;;;;20.16;59.86;100870.84;144992;615;6002;-86
2021/04/28 10:21:18;;;;;;;11.80;7.25;;;;;;;20.26;60.24;100897.09;144992;643;6002;-88
2021/04/28 10:23:46;;;;;;;12.55;7.47;;;;;;;19.98;61.23;100921.87;144992;603;6003;-88
2021/04/28 10:26:14;;;;;;;11.63;6.75;;;;;;;19.73;62.60;100940.44;144992;578;6002;-90
2021/04/28 10:33:46;;;;;;;10.27;6.97;;;;;;;19.70;62.63;100967.62;144992;671;6002;-87
2021/04/28 10:36:14;;;;;;;9.90;6.72;;;;;;;19.58;63.52;100980.84;144992;606;6002;-88
2021/04/28 10:38:52;;;;;;;8.18;6.25;;;;;;;19.64;62.70;100970.28;144992;611;6002;-89
2021/04/28 10:41:40;;;;;;;8.85;6.43;;;;;;;19.58;63.37;100950.13;144992;580;6002;-85
2021/04/28 10:44:27;;;;;;;11.50;6.95;;;;;;;19.70;63.09;100959.72;144992;567;6004;-87
2021/04/28 10:47:26;;;;;;;10.07;6.95;;;;;;;19.65;62.97;100955.37;144992;574;6002;-86
2021/04/28 10:50:13;;;;;;;9.20;7.05;;;;;;;19.47;63.77;100943.13;144992;555;6000;-86
2021/04/28 10:53:00;;;;;;;12.43;6.85;;;;;;;19.38;64.15;100958.09;144992;591;6004;-83
2021/04/28 10:55:54;;;;;;;11.40;7.28;;;;;;;19.19;64.98;100944.09;144991;591;6000;-84
2021/04/28 10:58:44;;;;;;;13.73;7.65;;;;;;;19.10;65.82;100930.97;144992;592;6004;-88
2021/04/28 11:01:22;;;;;;;9.68;6.97;;;;;;;18.81;67.03;100946.75;144992;579;6002;-90
2021/04/28 11:03:56;;;;;;;10.60;7.32;;;;;;;18.95;66.25;100952.06;144992;582;6002;-85
2021/04/28 11:06:32;;;;;;;9.70;6.70;;;;;;;19.06;66.17;100942.37;144992;587;6002;-85
2021/04/28 11:09:10;;;;;;;9.43;7.12;;;;;;;19.34;64.16;100910.72;144991;572;6002;-86
2021/04/28 11:11:42;;;;;;;10.18;7.35;;;;;;;19.54;63.79;100885.19;144992;672;6002;-86
2021/04/28 11:14:30;;;;;;;9.50;7.05;;;;;;;19.68;64.18;100864.06;144992;587;6002;-85
2021/04/28 11:17:26;;;;;;;11.23;7.60;;;;;;;19.97;63.39;100843.75;144992;567;6004;-87
2021/04/28 11:20:21;;;;;;;12.50;7.60;;;;;;;20.23;62.95;100827.72;144992;563;6002;-85
2021/04/28 11:22:50;;;;;;;12.27;7.43;;;;;;;20.42;62.88;100807.34;144992;613;6004;-85
2021/04/28 11:25:19;;;;;;;12.82;7.12;;;;;;;20.35;62.76;100792.47;144992;559;6004;-88
2021/04/28 11:28:07;;;;;;;11.23;7.00;;;;;;;20.61;62.06;100774.59;144992;588;6004;-90
2021/04/28 11:30:45;;;;;;;9.23;7.00;;;;;;;20.61;62.37;100797.47;144992;664;6004;-87
2021/04/28 11:33:22;;;;;;;10.43;6.55;;;;;;;20.75;62.35;100834.31;144992;573;6004;-83
2021/04/28 11:36:15;;;;;;;9.55;6.10;;;;;;;20.82;61.84;100828.06;144992;637;6004;-85
2021/04/28 11:38:47;;;;;;;13.68;6.90;;;;;;;20.73;60.31;100822.88;144992;564;6002;-86
2021/04/28 11:41:17;;;;;;;11.95;6.78;;;;;;;20.44;61.50;100834.53;144992;604;6002;-84
2021/04/28 11:43:56;;;;;;;9.35;6.28;;;;;;;20.33;61.90;100839.03;144992;606;6002;-85
2021/04/28 11:46:26;;;;;;;12.70;6.82;;;;;;;20.17;61.85;100844.47;144992;585;6002;-86
2021/04/28 11:48:58;;;;;;;9.38;6.45;;;;;;;20.23;61.64;100840.87;144992;593;6002;-88
2021/04/28 11:51:35;;;;;;;10.40;6.10;;;;;;;20.28;61.73;100824.16;144992;734;6002;-88
2021/04/28 11:54:05;;;;;;;10.10;5.80;;;;;;;20.21;61.63;100808.41;144992;602;6002;-85
2021/04/28 11:56:51;;;;;;;12.20;5.80;;;;;;;20.21;61.07;100800.50;144992;576;6002;-82
2021/04/28 11:59:26;;;;;;;9.10;6.15;;;;;;;20.14;60.77;100786.50;144992;630;6004;-87
2021/04/28 12:02:01;;;;;;;9.70;5.80;;;;;;;20.50;60.33;100773.84;144992;633;6004;-82
2021/04/28 12:04:41;;;;;;;10.43;6.12;;;;;;;20.35;59.13;100787.22;144992;574;6004;-88
2021/04/28 12:07:13;;;;;;;11.05;6.20;;;;;;;20.18;60.96;100785.56;144992;591;6004;-83
2021/04/28 12:09:48;;;;;;;8.95;6.00;;;;;;;20.41;60.84;100789.75;144992;587;6004;-83
2021/04/28 12:12:31;;;;;;;9.10;6.18;;;;;;;20.63;60.63;100782.50;144992;571;6004;-83
2021/04/28 12:15:26;;;;;;;7.97;6.00;;;;;;;20.60;61.26;100796.63;144992;586;6004;-88
2021/04/28 12:17:54;;;;;;;10.73;6.12;;;;;;;20.65;61.16;100786.06;144992;658;6002;-83
2021/04/28 12:20:22;;;;;;;10.18;6.57;;;;;;;20.77;60.66;100795.56;144992;633;6002;-89
2021/04/28 12:22:49;;;;;;;10.55;5.50;;;;;;;20.83;59.42;100803.44;144991;610;6002;-86
2021/04/28 12:25:23;;;;;;;13.20;6.18;;;;;;;20.93;60.03;100802.41;144992;593;6002;-91
2021/04/28 12:27:51;;;;;;;9.48;6.60;;;;;;;20.91;60.04;100801.56;144992;563;6002;-84
2021/04/28 12:30:21;;;;;;;8.77;5.82;;;;;;;20.96;59.85;100812.06;144992;582;6002;-88
2021/04/28 12:32:51;;;;;;;11.98;5.95;;;;;;;20.77;59.95;100801.72;144992;559;6002;-83
2021/04/28 12:35:29;;;;;;;10.75;5.75;;;;;;;20.70;60.56;100796.56;144992;551;6002;-84
2021/04/28 12:38:16;;;;;;;12.63;6.60;;;;;;;20.69;61.13;100810.63;144992;564;6003;-86